createdAt,value
2018-11-07T00:00:41.348Z,97348.42
2018-11-07T00:03:10.886Z,97353.06
2018-11-07T00:05:40.506Z,97359.00
2018-11-07T00:08:10.253Z,97358.95
2018-11-07T00:10:39.776Z,97368.27
2018-11-07T00:13:09.385Z,97372.08
2018-11-07T00:15:38.912Z,97378.87
2018-11-07T00:18:08.611Z,97376.30
2018-11-07T00:20:38.212Z,97382.26
2018-11-07T00:23:07.911Z,97383.55
2018-11-07T00:25:37.423Z,97383.14
2018-11-07T00:28:07.024Z,97387.00
2018-11-07T00:30:36.562Z,97382.75
2018-11-07T00:33:06.537Z,97383.22
2018-11-07T00:35:36.198Z,97383.69
2018-11-07T00:38:05.967Z,97380.33
2018-11-07T00:40:35.947Z,97374.45
2018-11-07T00:43:05.703Z,97377.81
2018-11-07T00:45:36.038Z,97383.78
2018-11-07T00:48:05.647Z,97393.54
2018-11-07T00:50:35.986Z,97393.95
2018-11-07T00:53:05.785Z,97393.13
2018-11-07T00:55:36.095Z,97396.50
2018-11-07T00:58:05.968Z,97397.81
2018-11-07T01:00:36.000Z,97397.38
2018-11-07T01:03:05.738Z,97398.64
2018-11-07T01:05:35.977Z,97398.66
2018-11-07T01:08:05.668Z,97396.95
2018-11-07T01:10:35.988Z,97404.58
2018-11-07T01:13:05.631Z,97400.79
2018-11-07T01:15:36.163Z,97379.58
2018-11-07T01:18:06.132Z,97395.67
2018-11-07T01:20:36.262Z,97391.45
2018-11-07T01:23:05.916Z,97398.24
2018-11-07T01:25:36.121Z,97399.50
2018-11-07T01:28:05.917Z,97398.22
2018-11-07T01:30:36.443Z,97396.52
2018-11-07T01:33:06.320Z,97393.52
2018-11-07T01:35:36.522Z,97394.41
2018-11-07T01:38:06.284Z,97391.84
2018-11-07T01:40:36.776Z,97393.15
2018-11-07T01:43:06.579Z,97394.42
2018-11-07T01:45:36.334Z,97384.23
2018-11-07T01:48:05.939Z,97380.80
2018-11-07T01:50:36.295Z,97394.00
2018-11-07T01:53:05.976Z,97392.70
2018-11-07T01:55:36.303Z,97384.20
2018-11-07T01:58:05.809Z,97385.05
2018-11-07T02:00:36.363Z,97385.00
2018-11-07T02:03:06.074Z,97386.72
2018-11-07T02:05:36.466Z,97379.06
2018-11-07T02:08:06.469Z,97376.06
2018-11-07T02:10:36.530Z,97374.33
2018-11-07T02:13:06.294Z,97376.93
2018-11-07T02:15:36.459Z,97384.14
2018-11-07T02:18:06.994Z,97387.13
2018-11-07T02:20:36.755Z,97398.14
2018-11-07T02:23:06.390Z,97410.05
2018-11-07T02:25:36.742Z,97404.52
2018-11-07T02:28:06.534Z,97396.05
2018-11-07T02:30:36.786Z,97392.69
2018-11-07T02:33:06.491Z,97403.27
2018-11-07T02:35:36.656Z,97400.72
2018-11-07T02:38:06.311Z,97406.64
2018-11-07T02:40:36.714Z,97409.20
2018-11-07T02:43:06.250Z,97415.97
2018-11-07T02:45:36.715Z,97414.72
2018-11-07T02:48:06.351Z,97413.45
2018-11-07T02:50:36.677Z,97403.27
2018-11-07T02:53:06.355Z,97401.62
2018-11-07T02:55:36.839Z,97303.30
2018-11-07T02:58:06.535Z,97406.27
2018-11-07T03:00:36.768Z,97399.03
2018-11-07T03:03:06.553Z,97390.95
2018-11-07T03:05:36.665Z,97394.34
2018-11-07T03:08:06.309Z,97391.73
2018-11-07T03:10:36.865Z,97387.88
2018-11-07T03:13:07.555Z,97387.06
2018-11-07T03:15:37.185Z,97390.03
2018-11-07T03:18:07.188Z,97395.52
2018-11-07T03:20:36.872Z,97372.25
2018-11-07T03:23:06.400Z,97404.84
2018-11-07T03:25:36.685Z,97412.47
2018-11-07T03:28:06.742Z,97415.45
2018-11-07T03:30:36.759Z,97414.17
2018-11-07T03:33:06.455Z,97418.84
2018-11-07T03:35:36.683Z,97420.13
2018-11-07T03:38:06.290Z,97417.58
2018-11-07T03:40:36.820Z,97424.36
2018-11-07T03:43:07.153Z,97426.46
2018-11-07T03:45:41.955Z,97431.16
2018-11-07T03:48:11.593Z,97426.48
2018-11-07T03:50:41.099Z,97423.09
2018-11-07T03:53:10.556Z,97427.77
2018-11-07T03:55:40.111Z,97431.16
2018-11-07T03:58:09.686Z,97427.33
2018-11-07T04:00:39.241Z,97422.21
2018-11-07T04:03:08.821Z,97421.33
2018-11-07T04:05:38.346Z,97420.89
2018-11-07T04:08:08.147Z,97419.59
2018-11-07T04:10:37.778Z,97429.36
2018-11-07T04:13:07.469Z,97425.97
2018-11-07T04:15:37.050Z,97425.09
2018-11-07T04:18:06.697Z,97429.41
2018-11-07T04:20:37.086Z,97431.09
2018-11-07T04:23:06.709Z,97434.09
2018-11-07T04:25:36.959Z,97445.98
2018-11-07T04:28:06.946Z,97445.09
2018-11-07T04:30:36.872Z,97440.46
2018-11-07T04:33:06.491Z,97446.39
2018-11-07T04:35:36.824Z,97445.97
2018-11-07T04:38:06.650Z,97444.27
2018-11-07T04:40:36.932Z,97448.11
2018-11-07T04:43:07.154Z,97443.45
2018-11-07T04:45:36.877Z,97445.11
2018-11-07T04:48:07.011Z,97424.77
2018-11-07T04:50:36.894Z,97432.75
2018-11-07T04:53:06.510Z,97432.70
2018-11-07T04:55:36.898Z,97428.48
2018-11-07T04:58:06.465Z,97430.17
2018-11-07T05:00:36.897Z,97432.69
2018-11-07T05:03:06.802Z,97439.45
2018-11-07T05:05:36.886Z,97441.66
2018-11-07T05:08:06.516Z,97423.02
2018-11-07T05:10:36.975Z,97445.11
2018-11-07T05:13:06.361Z,97448.13
2018-11-07T05:15:36.897Z,97453.23
2018-11-07T05:18:06.574Z,97451.96
2018-11-07T05:20:37.224Z,97454.11
2018-11-07T05:23:07.231Z,97451.63
2018-11-07T05:25:37.134Z,97442.27
2018-11-07T05:28:06.889Z,97449.47
2018-11-07T05:30:37.107Z,97440.52
2018-11-07T05:33:06.692Z,97445.61
2018-11-07T05:35:37.093Z,97437.95
2018-11-07T05:38:06.717Z,97415.50
2018-11-07T05:40:37.194Z,97443.05
2018-11-07T05:43:06.848Z,97446.41
2018-11-07T05:45:37.195Z,97419.27
2018-11-07T05:48:06.794Z,97425.62
2018-11-07T05:50:37.180Z,97442.99
2018-11-07T05:53:07.140Z,97447.76
2018-11-07T05:55:37.278Z,97446.50
2018-11-07T05:58:07.049Z,97449.44
2018-11-07T06:00:37.497Z,97454.11
2018-11-07T06:03:07.094Z,97449.44
2018-11-07T06:05:37.244Z,97448.17
2018-11-07T06:08:06.831Z,97449.88
2018-11-07T06:10:37.539Z,97461.77
2018-11-07T06:13:07.142Z,97464.32
2018-11-07T06:15:37.521Z,97463.47
2018-11-07T06:18:07.097Z,97466.06
2018-11-07T06:20:37.550Z,97471.59
2018-11-07T06:23:07.179Z,97470.31
2018-11-07T06:25:37.646Z,97460.95
2018-11-07T06:28:07.262Z,97436.38
2018-11-07T06:30:37.738Z,97462.23
2018-11-07T06:33:07.491Z,97462.27
2018-11-07T06:35:37.766Z,97461.79
2018-11-07T06:38:07.544Z,97463.08
2018-11-07T06:40:37.631Z,97476.23
2018-11-07T06:43:07.037Z,97472.86
2018-11-07T06:45:37.642Z,97485.63
2018-11-07T06:48:07.232Z,97489.00
2018-11-07T06:50:37.930Z,97491.99
2018-11-07T06:53:07.498Z,97496.61
2018-11-07T06:55:37.892Z,97497.90
2018-11-07T06:58:07.467Z,97489.86
2018-11-07T07:00:37.767Z,97493.64
2018-11-07T07:03:07.508Z,97489.83
2018-11-07T07:05:37.845Z,97487.31
2018-11-07T07:08:07.359Z,97485.58
2018-11-07T07:10:37.779Z,97481.73
2018-11-07T07:13:07.438Z,97483.37
2018-11-07T07:15:37.806Z,97482.94
2018-11-07T07:18:07.763Z,97477.80
2018-11-07T07:20:38.148Z,97476.05
2018-11-07T07:23:07.866Z,97473.05
2018-11-07T07:25:37.899Z,97484.52
2018-11-07T07:28:07.573Z,97476.86
2018-11-07T07:30:37.871Z,97476.91
2018-11-07T07:33:07.530Z,97479.48
2018-11-07T07:35:37.714Z,97483.33
2018-11-07T07:38:07.639Z,97488.81
2018-11-07T07:40:37.885Z,97488.34
2018-11-07T07:43:07.370Z,97490.02
2018-11-07T07:45:37.848Z,97486.63
2018-11-07T07:48:07.467Z,97491.29
2018-11-07T07:50:37.778Z,97486.18
2018-11-07T07:53:07.449Z,97488.72
2018-11-07T07:55:37.757Z,97487.82
2018-11-07T07:58:07.314Z,97495.42
2018-11-07T08:00:37.831Z,97494.95
2018-11-07T08:03:07.530Z,97500.08
2018-11-07T08:05:37.892Z,97497.95
2018-11-07T08:08:07.659Z,97497.12
2018-11-07T08:10:37.970Z,97478.80
2018-11-07T08:13:07.503Z,97490.12
2018-11-07T08:15:37.811Z,97490.52
2018-11-07T08:18:08.139Z,97495.63
2018-11-07T08:20:37.899Z,97499.47
2018-11-07T08:23:07.590Z,97502.02
2018-11-07T08:25:37.879Z,97498.64
2018-11-07T08:28:07.622Z,97502.86
2018-11-07T08:30:37.935Z,97501.64
2018-11-07T08:33:07.728Z,97505.38
2018-11-07T08:35:37.839Z,97507.95
2018-11-07T08:38:07.379Z,97515.14
2018-11-07T08:40:37.889Z,97516.36
2018-11-07T08:43:07.397Z,97515.53
2018-11-07T08:45:37.831Z,97522.77
2018-11-07T08:48:07.550Z,97517.58
2018-11-07T08:50:37.825Z,97515.43
2018-11-07T08:53:07.371Z,97523.08
2018-11-07T08:55:37.884Z,97529.02
2018-11-07T08:58:07.507Z,97529.98
2018-11-07T09:00:37.891Z,97509.54
2018-11-07T09:03:07.519Z,97528.53
2018-11-07T09:05:37.868Z,97523.90
2018-11-07T09:08:07.466Z,97528.92
2018-11-07T09:10:38.087Z,97525.45
2018-11-07T09:13:07.744Z,97531.00
2018-11-07T09:15:38.200Z,97533.50
2018-11-07T09:18:07.830Z,97524.41
2018-11-07T09:20:38.178Z,97526.94
2018-11-07T09:23:07.771Z,97526.36
2018-11-07T09:25:38.232Z,97523.78
2018-11-07T09:28:07.795Z,97524.63
2018-11-07T09:30:38.146Z,97529.19
2018-11-07T09:33:09.188Z,97530.42
2018-11-07T09:35:38.720Z,97530.39
2018-11-07T09:38:08.390Z,97525.95
2018-11-07T09:40:38.428Z,97523.20
2018-11-07T09:43:08.129Z,97523.48
2018-11-07T09:45:38.374Z,97519.61
2018-11-07T09:48:07.998Z,97518.77
2018-11-07T09:50:38.470Z,97504.66
2018-11-07T09:53:08.122Z,97512.68
2018-11-07T09:55:38.432Z,97515.71
2018-11-07T09:58:08.018Z,97517.27
2018-11-07T10:00:38.612Z,97517.67
2018-11-07T10:03:08.178Z,97518.23
2018-11-07T10:05:38.411Z,97510.47
2018-11-07T10:08:08.004Z,97519.37
2018-11-07T10:10:38.401Z,97523.95
2018-11-07T10:13:08.545Z,97514.86
2018-11-07T10:15:38.560Z,97515.16
2018-11-07T10:18:08.270Z,97514.76
2018-11-07T10:20:38.664Z,97514.45
2018-11-07T10:23:08.210Z,97503.92
2018-11-07T10:25:38.515Z,97502.47
2018-11-07T10:28:08.545Z,97508.67
2018-11-07T10:30:38.532Z,97503.75
2018-11-07T10:33:08.724Z,97500.81
2018-11-07T10:35:38.479Z,97490.09
2018-11-07T10:38:08.356Z,97490.03
2018-11-07T10:40:38.480Z,97485.54
2018-11-07T10:43:08.067Z,97485.68
2018-11-07T10:45:38.528Z,97484.86
2018-11-07T10:48:08.179Z,97481.39
2018-11-07T10:50:38.597Z,97391.41
2018-11-07T10:53:08.194Z,97485.39
2018-11-07T10:55:38.640Z,97478.59
2018-11-07T10:58:08.345Z,97474.75
2018-11-07T11:00:43.581Z,97480.67
2018-11-07T11:03:18.223Z,97480.20
2018-11-07T11:05:47.748Z,97471.67
2018-11-07T11:08:17.411Z,97471.09
2018-11-07T11:10:47.025Z,97466.81
2018-11-07T11:13:16.747Z,97467.34
2018-11-07T11:15:46.279Z,97466.40
2018-11-07T11:18:15.925Z,97457.17
2018-11-07T11:20:45.562Z,97456.62
2018-11-07T11:23:15.112Z,97462.73
2018-11-07T11:25:44.695Z,97464.80
2018-11-07T11:28:14.357Z,97462.06
2018-11-07T11:30:43.904Z,97465.45
2018-11-07T11:33:13.480Z,97475.22
2018-11-07T11:35:43.101Z,97468.50
2018-11-07T11:38:13.227Z,97469.20
2018-11-07T11:40:42.950Z,97474.16
2018-11-07T11:43:12.654Z,97468.04
2018-11-07T11:45:42.254Z,97461.98
2018-11-07T11:48:11.937Z,97445.27
2018-11-07T11:50:41.474Z,97458.70
2018-11-07T11:53:11.045Z,97456.86
2018-11-07T11:55:40.621Z,97464.87
2018-11-07T11:58:10.080Z,97464.39
2018-11-07T12:00:39.679Z,97466.52
2018-11-07T12:03:09.255Z,97466.14
2018-11-07T12:05:38.883Z,97466.75
2018-11-07T12:08:08.609Z,97464.39
2018-11-07T12:10:39.144Z,97460.89
2018-11-07T12:13:08.738Z,97463.50
2018-11-07T12:15:39.078Z,97458.05
2018-11-07T12:18:08.689Z,97461.00
2018-11-07T12:20:39.314Z,97460.69
2018-11-07T12:23:09.004Z,97458.98
2018-11-07T12:25:39.034Z,97461.31
2018-11-07T12:28:08.753Z,97460.48
2018-11-07T12:30:39.238Z,97459.33
2018-11-07T12:33:08.774Z,97457.09
2018-11-07T12:35:39.111Z,97453.50
2018-11-07T12:38:08.924Z,97458.34
2018-11-07T12:40:39.070Z,97448.98
2018-11-07T12:43:08.668Z,97453.38
2018-11-07T12:45:39.091Z,97433.02
2018-11-07T12:48:08.758Z,97450.58
2018-11-07T12:50:38.995Z,97449.91
2018-11-07T12:53:08.545Z,97450.46
2018-11-07T12:55:39.102Z,97453.59
2018-11-07T12:58:08.877Z,97453.59
2018-11-07T13:00:39.103Z,97461.92
2018-11-07T13:03:08.858Z,97454.83
2018-11-07T13:05:39.128Z,97449.33
2018-11-07T13:08:08.954Z,97449.70
2018-11-07T13:10:39.278Z,97448.82
2018-11-07T13:13:09.034Z,97448.68
2018-11-07T13:15:39.382Z,97452.45
2018-11-07T13:18:08.823Z,97456.22
2018-11-07T13:20:39.538Z,97456.73
2018-11-07T13:23:09.137Z,97459.11
2018-11-07T13:25:39.323Z,97457.37
2018-11-07T13:28:09.072Z,97458.20
2018-11-07T13:30:39.510Z,97465.06
2018-11-07T13:33:09.071Z,97461.89
2018-11-07T13:35:39.518Z,97463.61
2018-11-07T13:38:09.456Z,97462.67
2018-11-07T13:40:39.461Z,97445.11
2018-11-07T13:43:09.698Z,97456.05
2018-11-07T13:45:39.601Z,97443.89
2018-11-07T13:48:09.154Z,97455.85
2018-11-07T13:50:39.643Z,97457.02
2018-11-07T13:53:09.309Z,97449.72
2018-11-07T13:55:39.646Z,97457.45
2018-11-07T13:58:09.224Z,97461.71
2018-11-07T14:00:39.621Z,97447.16
2018-11-07T14:03:09.207Z,97468.61
2018-11-07T14:05:39.628Z,97469.14
2018-11-07T14:08:09.042Z,97470.13
2018-11-07T14:10:39.666Z,97469.22
2018-11-07T14:13:09.686Z,97476.81
2018-11-07T14:15:39.508Z,97473.23
2018-11-07T14:18:09.098Z,97479.91
2018-11-07T14:20:39.688Z,97477.39
2018-11-07T14:23:09.777Z,97475.25
2018-11-07T14:25:39.574Z,97471.63
2018-11-07T14:28:09.310Z,97470.56
2018-11-07T14:30:39.823Z,97480.33
2018-11-07T14:33:09.436Z,97479.70
2018-11-07T14:35:39.578Z,97481.22
2018-11-07T14:38:09.136Z,97490.14
2018-11-07T14:40:39.569Z,97490.59
2018-11-07T14:43:09.261Z,97501.77
2018-11-07T14:45:39.619Z,97493.84
2018-11-07T14:48:09.170Z,97499.79
2018-11-07T14:50:39.502Z,97483.36
2018-11-07T14:53:09.095Z,97487.85
2018-11-07T14:55:39.473Z,97495.66
2018-11-07T14:58:08.941Z,97499.95
2018-11-07T15:00:39.616Z,97495.71
2018-11-07T15:03:09.122Z,97506.13
2018-11-07T15:05:39.578Z,97509.36
2018-11-07T15:08:09.196Z,97513.16
2018-11-07T15:10:39.560Z,97516.87
2018-11-07T15:13:09.187Z,97517.39
2018-11-07T15:15:39.629Z,97527.25
2018-11-07T15:18:09.240Z,97525.81
2018-11-07T15:20:39.667Z,97526.49
2018-11-07T15:23:09.154Z,97532.03
2018-11-07T15:25:39.565Z,97533.83
2018-11-07T15:28:09.184Z,97540.70
2018-11-07T15:30:39.546Z,97539.79
2018-11-07T15:33:09.126Z,97546.20
2018-11-07T15:35:39.640Z,97543.06
2018-11-07T15:38:09.432Z,97547.81
2018-11-07T15:40:39.595Z,97549.37
2018-11-07T15:43:09.194Z,97553.88
2018-11-07T15:45:39.518Z,97554.17
2018-11-07T15:48:09.130Z,97555.59
2018-11-07T15:50:44.838Z,97520.28
2018-11-07T15:53:14.486Z,97561.00
2018-11-07T15:55:44.014Z,97563.07
2018-11-07T15:58:13.673Z,97563.84
2018-11-07T16:00:43.288Z,97557.53
2018-11-07T16:03:12.896Z,97555.72
2018-11-07T16:05:42.498Z,97559.83
2018-11-07T16:08:12.133Z,97565.91
2018-11-07T16:10:41.691Z,97568.06
2018-11-07T16:13:11.966Z,97576.14
2018-11-07T16:15:41.709Z,97578.75
2018-11-07T16:18:11.176Z,97581.75
2018-11-07T16:20:40.999Z,97584.20
2018-11-07T16:23:10.542Z,97562.08
2018-11-07T16:25:40.138Z,97583.94
2018-11-07T16:28:09.695Z,97590.42
2018-11-07T16:30:40.119Z,97590.56
2018-11-07T16:33:09.778Z,97595.05
2018-11-07T16:35:40.229Z,97592.99
2018-11-07T16:38:09.867Z,97595.28
2018-11-07T16:40:40.391Z,97595.36
2018-11-07T16:43:09.931Z,97598.59
2018-11-07T16:45:40.343Z,97601.79
2018-11-07T16:48:09.944Z,97601.08
2018-11-07T16:50:40.344Z,97603.20
2018-11-07T16:53:10.484Z,97603.60
2018-11-07T16:55:40.315Z,97616.02
2018-11-07T16:58:09.889Z,97619.02
2018-11-07T17:00:40.324Z,97616.97
2018-11-07T17:03:09.935Z,97625.55
2018-11-07T17:05:40.235Z,97629.89
2018-11-07T17:08:09.826Z,97632.04
2018-11-07T17:10:40.255Z,97631.17
2018-11-07T17:13:09.805Z,97637.16
2018-11-07T17:15:40.247Z,97636.39
2018-11-07T17:18:09.734Z,97638.16
2018-11-07T17:20:40.542Z,97639.44
2018-11-07T17:23:18.314Z,97639.09
2018-11-07T17:25:40.485Z,97645.05
2018-11-07T17:28:09.916Z,97649.81
2018-11-07T17:30:40.142Z,97657.48
2018-11-07T17:33:09.512Z,97657.49
2018-11-07T17:35:40.098Z,97660.09
2018-11-07T17:38:09.592Z,97658.81
2018-11-07T17:40:40.489Z,97653.77
2018-11-07T17:43:10.066Z,97654.63
2018-11-07T17:45:40.568Z,97661.05
2018-11-07T17:48:10.195Z,97665.69
2018-11-07T17:50:40.589Z,97665.25
2018-11-07T17:53:11.255Z,97666.11
2018-11-07T17:55:40.780Z,97675.48
2018-11-07T17:58:10.306Z,97669.47
2018-11-07T18:00:40.646Z,97674.56
2018-11-07T18:03:10.270Z,97674.13
2018-11-07T18:05:40.784Z,97676.21
2018-11-07T18:08:10.310Z,97678.75
2018-11-07T18:10:40.766Z,97686.80
2018-11-07T18:13:10.303Z,97691.00
2018-11-07T18:15:40.773Z,97686.72
2018-11-07T18:18:10.494Z,97694.36
2018-11-07T18:20:40.897Z,97671.86
2018-11-07T18:23:10.490Z,97694.80
2018-11-07T18:25:40.724Z,97693.45
2018-11-07T18:28:10.348Z,97683.27
2018-11-07T18:30:40.800Z,97709.62
2018-11-07T18:33:10.398Z,97710.46
2018-11-07T18:35:40.935Z,97661.17
2018-11-07T18:38:10.595Z,97713.39
2018-11-07T18:40:40.754Z,97709.99
2018-11-07T18:43:10.509Z,97712.15
2018-11-07T18:45:40.779Z,97713.01
2018-11-07T18:48:10.388Z,97716.42
2018-11-07T18:50:40.851Z,97715.56
2018-11-07T18:53:10.383Z,97720.73
2018-11-07T18:55:40.847Z,97723.27
2018-11-07T18:58:10.520Z,97727.54
2018-11-07T19:00:41.610Z,97733.47
2018-11-07T19:03:12.004Z,97735.13
2018-11-07T19:05:47.936Z,97740.64
2018-11-07T19:08:18.703Z,97743.66
2018-11-07T19:10:48.655Z,97741.94
2018-11-07T19:13:18.296Z,97739.80
2018-11-07T19:15:47.850Z,97746.60
2018-11-07T19:18:17.793Z,97750.41
2018-11-07T19:20:48.557Z,97752.50
2018-11-07T19:23:20.041Z,97753.80
2018-11-07T19:25:51.934Z,97753.32
2018-11-07T19:28:24.466Z,97755.01
2018-11-07T19:30:56.525Z,97721.92
2018-11-07T19:33:29.007Z,97753.37
2018-11-07T19:36:00.615Z,97749.16
2018-11-07T19:38:31.677Z,97756.78
2018-11-07T19:41:02.347Z,97753.34
2018-11-07T19:43:33.249Z,97751.20
2018-11-07T19:46:05.235Z,97751.62
2018-11-07T19:48:35.742Z,97753.33
2018-11-07T19:51:07.681Z,97748.66
2018-11-07T19:53:40.133Z,97752.46
2018-11-07T19:56:12.435Z,97758.02
2018-11-07T19:58:45.139Z,97757.98
2018-11-07T20:01:17.294Z,97757.54
2018-11-07T20:03:49.510Z,97764.34
2018-11-07T20:06:22.224Z,97769.52
2018-11-07T20:08:54.959Z,97764.84
2018-11-07T20:11:27.507Z,97768.30
2018-11-07T20:14:00.004Z,97774.64
2018-11-07T20:16:32.794Z,97778.86
2018-11-07T20:19:05.671Z,97786.50
2018-11-07T20:21:38.231Z,97784.36
2018-11-07T20:24:10.907Z,97786.48
2018-11-07T20:26:43.688Z,97791.22
2018-11-07T20:29:16.418Z,97795.58
2018-11-07T20:31:49.534Z,97798.08
2018-11-07T20:34:22.194Z,97796.38
2018-11-07T20:36:54.882Z,97796.78
2018-11-07T20:39:28.032Z,97804.00
2018-11-07T20:42:00.551Z,97793.78
2018-11-07T20:44:34.166Z,97804.02
2018-11-07T20:47:06.782Z,97808.70
2018-11-07T20:49:39.593Z,97803.98
2018-11-07T20:52:12.220Z,97808.23
2018-11-07T20:54:44.776Z,97806.95
2018-11-07T20:57:17.530Z,97812.02
2018-11-07T20:59:50.276Z,97814.13
2018-11-07T21:02:22.553Z,97814.56
2018-11-07T21:04:54.668Z,97814.13
2018-11-07T21:07:26.837Z,97815.02
2018-11-07T21:09:59.183Z,97813.74
2018-11-07T21:12:31.603Z,97820.63
2018-11-07T21:15:04.102Z,97821.02
2018-11-07T21:17:36.004Z,97823.19
2018-11-07T21:20:07.418Z,97827.00
2018-11-07T21:22:40.182Z,97826.58
2018-11-07T21:25:11.581Z,97827.47
2018-11-07T21:27:41.080Z,97832.57
2018-11-07T21:30:12.815Z,97837.25
2018-11-07T21:32:43.876Z,97822.77
2018-11-07T21:35:13.339Z,97843.15
2018-11-07T21:37:43.140Z,97845.27
2018-11-07T21:40:14.942Z,97843.11
2018-11-07T21:42:44.839Z,97828.19
2018-11-07T21:45:14.885Z,97846.00
2018-11-07T21:47:44.691Z,97850.38
2018-11-07T21:50:15.926Z,97859.31
2018-11-07T21:52:45.361Z,97859.28
2018-11-07T21:55:14.779Z,97860.97
2018-11-07T21:57:44.203Z,97866.03
2018-11-07T22:00:17.026Z,97868.59
2018-11-07T22:02:46.624Z,97872.00
2018-11-07T22:05:16.840Z,97866.84
2018-11-07T22:07:46.269Z,97851.96
2018-11-07T22:10:16.968Z,97880.95
2018-11-07T22:12:52.571Z,97873.72
2018-11-07T22:15:22.002Z,97880.59
2018-11-07T22:17:51.497Z,97878.11
2018-11-07T22:20:22.897Z,97880.63
2018-11-07T22:22:52.406Z,97879.40
2018-11-07T22:25:21.791Z,97883.23
2018-11-07T22:27:51.250Z,97889.58
2018-11-07T22:30:20.738Z,97889.14
2018-11-07T22:32:50.280Z,97885.70
2018-11-07T22:35:19.731Z,97882.27
2018-11-07T22:37:49.218Z,97884.81
2018-11-07T22:40:19.800Z,97879.31
2018-11-07T22:42:49.381Z,97890.83
2018-11-07T22:45:19.026Z,97891.64
2018-11-07T22:47:48.682Z,97891.67
2018-11-07T22:50:18.992Z,97901.01
2018-11-07T22:52:48.591Z,97881.02
2018-11-07T22:55:18.371Z,97906.95
2018-11-07T22:57:47.953Z,97912.47
2018-11-07T23:00:23.552Z,97920.20
2018-11-07T23:02:55.149Z,97923.62
2018-11-07T23:05:24.815Z,97924.46
2018-11-07T23:07:54.371Z,97924.47
2018-11-07T23:10:24.782Z,97934.42
2018-11-07T23:12:55.112Z,97931.06
2018-11-07T23:15:30.829Z,97926.81
2018-11-07T23:18:00.465Z,97929.34
2018-11-07T23:20:29.995Z,97922.45
2018-11-07T23:22:59.676Z,97920.31
2018-11-07T23:25:29.293Z,97920.73
2018-11-07T23:27:58.790Z,97928.41
2018-11-07T23:30:28.193Z,97927.53
2018-11-07T23:32:57.739Z,97927.09
2018-11-07T23:35:27.432Z,97931.36
2018-11-07T23:37:57.225Z,97930.52
2018-11-07T23:40:27.143Z,97940.75
2018-11-07T23:42:56.675Z,97935.61
2018-11-07T23:45:26.234Z,97942.09
2018-11-07T23:47:55.862Z,97952.28
2018-11-07T23:50:25.437Z,97943.28
2018-11-07T23:52:55.084Z,97945.09
2018-11-07T23:55:25.012Z,97948.45
2018-11-07T23:57:54.793Z,97952.72
